Time;durP1;ratioP1;P1;durP2;ratioP2;P2;SDS_P1;SDS_P2;PMS_P1;PMS_P2;Temp;Humidity;BMP_temperature;BMP_pressure;BME280_temperature;BME280_humidity;BME280_pressure;Samples;Min_cycle;Max_cycle;Signal;HPM_P1;HPM_P2
2022/03/31 00:03:52;;;;;;;12.88;11.48;;;;;;;8.25;60.86;98568.03;10353539;28;20042;-62
2022/03/31 00:08:54;;;;;;;12.60;11.30;;;;;;;7.92;61.92;98561.56;10353828;28;20121;-62
2022/03/31 00:13:55;;;;;;;14.60;12.65;;;;;;;8.03;61.56;98564.00;10353669;28;20144;-62
2022/03/31 00:18:57;;;;;;;14.88;13.18;;;;;;;7.91;61.96;98570.47;10353260;28;20130;-62
2022/03/31 00:23:59;;;;;;;13.73;12.32;;;;;;;7.60;62.07;98536.34;10352911;28;20053;-63
2022/03/31 00:29:00;;;;;;;17.35;14.50;;;;;;;7.76;62.36;98576.28;10354443;28;20138;-62
2022/03/31 00:34:02;;;;;;;13.45;12.05;;;;;;;7.36;62.67;98513.03;10353761;28;20065;-63
2022/03/31 00:44:23;;;;;;;13.63;12.23;;;;;;;7.39;63.43;98518.88;10351112;28;20552;-63
2022/03/31 00:49:26;;;;;;;13.77;11.63;;;;;;;7.68;63.20;98554.97;10353868;28;20129;-63
2022/03/31 00:54:27;;;;;;;14.27;12.48;;;;;;;7.48;63.13;98511.06;10352291;28;20246;-62
2022/03/31 00:59:30;;;;;;;15.18;12.23;;;;;;;7.63;63.41;98541.34;10351527;28;20160;-62
2022/03/31 01:04:34;;;;;;;15.40;12.57;;;;;;;7.42;63.51;98497.41;10349242;28;20748;-61
2022/03/31 01:09:35;;;;;;;15.73;12.80;;;;;;;7.63;63.61;98514.88;10352386;28;20103;-62
2022/03/31 01:14:37;;;;;;;14.55;13.05;;;;;;;7.63;63.59;98517.50;10352299;28;20113;-62
2022/03/31 01:19:38;;;;;;;14.98;13.30;;;;;;;7.38;63.37;98474.84;10351284;28;20049;-62
2022/03/31 01:24:40;;;;;;;16.17;13.55;;;;;;;7.42;63.48;98467.47;10351529;28;20085;-62
2022/03/31 01:29:41;;;;;;;15.55;13.18;;;;;;;7.52;63.18;98481.47;10352390;28;20080;-62
2022/03/31 01:34:43;;;;;;;16.85;14.05;;;;;;;7.33;62.97;98448.00;10352299;28;20191;-62
2022/03/31 01:39:44;;;;;;;14.52;13.02;;;;;;;7.41;63.07;98463.97;10354633;28;20045;-61
2022/03/31 01:44:46;;;;;;;14.25;12.68;;;;;;;7.68;63.09;98502.00;10351746;28;20157;-62
2022/03/31 01:49:47;;;;;;;16.38;13.55;;;;;;;7.72;62.57;98491.97;10352159;28;20058;-63
2022/03/31 01:54:49;;;;;;;15.45;13.15;;;;;;;7.74;62.40;98500.59;10355468;28;20128;-63
2022/03/31 01:59:51;;;;;;;16.42;13.15;;;;;;;7.72;62.32;98492.78;10354420;28;20145;-63
2022/03/31 02:04:52;;;;;;;16.98;13.50;;;;;;;7.55;62.14;98467.09;10353659;28;20185;-62
2022/03/31 02:09:54;;;;;;;16.23;12.30;;;;;;;7.67;62.18;98486.25;10355167;28;20128;-63
2022/03/31 02:14:55;;;;;;;14.77;13.02;;;;;;;7.55;62.46;98483.84;10359798;28;20145;-63
2022/03/31 02:19:57;;;;;;;15.88;12.00;;;;;;;7.58;62.32;98474.75;10355654;28;20592;-61
2022/03/31 02:24:58;;;;;;;17.08;13.98;;;;;;;7.54;62.12;98457.50;10352104;28;20131;-61
2022/03/31 02:30:00;;;;;;;16.45;13.48;;;;;;;7.50;62.59;98456.13;10350318;28;20783;-62
2022/03/31 02:35:02;;;;;;;16.25;13.05;;;;;;;7.43;62.72;98456.72;10353500;28;20688;-62
2022/03/31 02:40:05;;;;;;;14.40;12.57;;;;;;;7.26;62.95;98417.78;10354277;28;20136;-62
2022/03/31 02:45:07;;;;;;;14.50;12.95;;;;;;;7.40;62.70;98432.34;10356467;28;20069;-60
2022/03/31 02:50:09;;;;;;;17.35;14.07;;;;;;;7.51;62.90;98452.50;10350995;28;20608;-62
2022/03/31 02:55:25;;;;;;;15.73;12.95;;;;;;;7.49;62.39;98443.84;10354724;28;20594;-62
2022/03/31 03:00:30;;;;;;;17.60;14.13;;;;;;;7.50;62.51;98440.25;10352870;28;20080;-62
2022/03/31 03:05:32;;;;;;;16.38;13.50;;;;;;;7.47;62.30;98435.25;10353202;28;20650;-62
2022/03/31 03:10:34;;;;;;;17.63;13.82;;;;;;;7.42;62.29;98423.28;10355422;28;20947;-60
2022/03/31 03:15:36;;;;;;;17.17;14.38;;;;;;;7.43;62.30;98419.66;10349940;28;20238;-60
2022/03/31 03:20:38;;;;;;;17.27;14.05;;;;;;;7.43;62.48;98424.94;10348661;28;20111;-61
2022/03/31 03:25:39;;;;;;;17.90;13.73;;;;;;;7.36;62.48;98410.63;10349070;28;20115;-62
2022/03/31 03:30:40;;;;;;;15.43;13.23;;;;;;;7.38;62.08;98407.84;10360664;28;20231;-61
2022/03/31 03:35:42;;;;;;;14.57;13.10;;;;;;;7.04;62.61;98360.81;10361532;28;20615;-62
2022/03/31 03:40:43;;;;;;;17.00;13.13;;;;;;;7.34;62.60;98409.97;10360029;28;20274;-62
2022/03/31 03:45:45;;;;;;;17.20;13.98;;;;;;;7.33;62.35;98396.88;10357333;28;20061;-60
2022/03/31 03:50:47;;;;;;;16.40;13.38;;;;;;;7.27;62.25;98403.59;10358166;28;20057;-62
2022/03/31 03:55:48;;;;;;;16.90;14.65;;;;;;;7.18;62.65;98392.06;10359354;28;20140;-64
2022/03/31 04:00:50;;;;;;;16.83;14.75;;;;;;;7.15;62.40;98380.97;10360798;28;20045;-62
2022/03/31 04:05:51;;;;;;;16.45;13.45;;;;;;;7.04;62.63;98366.94;10358815;28;20057;-62
2022/03/31 04:10:53;;;;;;;17.70;14.93;;;;;;;7.03;62.90;98365.25;10355503;28;20747;-62
2022/03/31 04:15:54;;;;;;;15.40;13.13;;;;;;;6.96;62.92;98360.72;10356608;28;20054;-63
2022/03/31 04:20:56;;;;;;;16.25;13.75;;;;;;;6.94;63.18;98368.78;10354112;28;20060;-62
2022/03/31 04:25:57;;;;;;;16.10;14.40;;;;;;;6.87;63.38;98365.88;10358496;28;20060;-63
2022/03/31 04:30:59;;;;;;;15.40;13.70;;;;;;;6.86;63.28;98366.03;10358777;28;20131;-61
2022/03/31 04:36:00;;;;;;;17.67;14.07;;;;;;;6.83;63.67;98359.25;10354480;28;20056;-61
2022/03/31 04:41:02;;;;;;;16.98;13.65;;;;;;;6.82;63.54;98360.22;10359466;28;20139;-64
2022/03/31 04:46:03;;;;;;;15.25;13.48;;;;;;;6.87;63.02;98350.03;10357320;28;20865;-61
2022/03/31 04:51:05;;;;;;;15.20;13.60;;;;;;;6.87;63.05;98343.91;10330137;28;20046;-64
2022/03/31 04:56:06;;;;;;;17.50;13.98;;;;;;;6.78;62.82;98344.78;10331814;28;20045;-63
2022/03/31 05:01:08;;;;;;;17.45;14.43;;;;;;;6.77;62.82;98362.47;10338083;28;20049;-63
2022/03/31 05:06:10;;;;;;;19.17;15.18;;;;;;;6.75;63.07;98361.78;10334990;28;20606;-63
2022/03/31 05:11:11;;;;;;;18.35;14.50;;;;;;;6.78;62.74;98358.00;10344902;28;20433;-63
2022/03/31 05:16:13;;;;;;;20.67;16.00;;;;;;;6.83;62.39;98363.69;10342613;28;20817;-64
2022/03/31 05:21:15;;;;;;;18.50;14.25;;;;;;;6.86;61.75;98358.09;10337380;28;20057;-63
2022/03/31 05:26:16;;;;;;;19.45;15.48;;;;;;;6.69;61.34;98330.63;10340958;28;20316;-63
2022/03/31 05:31:17;;;;;;;18.15;14.60;;;;;;;6.92;61.33;98373.41;10343181;28;20061;-63
2022/03/31 05:36:19;;;;;;;18.30;15.85;;;;;;;6.96;60.83;98374.75;10342764;28;20077;-62
2022/03/31 05:41:20;;;;;;;20.67;15.40;;;;;;;6.81;60.73;98342.66;10340790;28;20064;-63
2022/03/31 05:46:23;;;;;;;18.15;14.75;;;;;;;6.98;60.40;98374.63;10336391;28;20563;-62
2022/03/31 05:51:24;;;;;;;16.83;12.65;;;;;;;6.99;60.21;98374.47;10339576;28;20064;-61
2022/03/31 05:56:26;;;;;;;16.88;15.10;;;;;;;7.02;60.44;98379.47;10344164;28;20861;-61
2022/03/31 06:01:27;;;;;;;16.50;14.10;;;;;;;7.33;60.97;98373.88;10340007;28;20524;-62
2022/03/31 06:06:29;;;;;;;17.83;15.23;;;;;;;7.30;59.91;98376.81;10344041;28;20081;-61
2022/03/31 06:11:31;;;;;;;17.88;14.88;;;;;;;7.16;59.94;98375.53;10344129;28;20107;-61
2022/03/31 06:16:32;;;;;;;17.67;13.95;;;;;;;7.13;60.17;98369.66;10342470;28;20049;-61
2022/03/31 06:21:35;;;;;;;19.20;15.15;;;;;;;7.16;60.13;98372.03;10339244;28;20045;-61
2022/03/31 06:26:36;;;;;;;16.75;14.93;;;;;;;6.94;60.10;98345.00;10341220;28;20580;-63
2022/03/31 06:31:38;;;;;;;17.58;13.73;;;;;;;7.26;59.37;98365.69;10339578;28;20167;-61
2022/03/31 06:36:40;;;;;;;18.48;16.17;;;;;;;7.38;59.48;98361.00;10338780;28;20049;-60
2022/03/31 06:41:44;;;;;;;17.80;14.82;;;;;;;7.11;59.35;98319.53;10341832;28;20061;-59
2022/03/31 06:46:46;;;;;;;18.00;14.73;;;;;;;7.38;59.48;98360.19;10339135;28;20053;-60
2022/03/31 06:51:48;;;;;;;16.95;13.50;;;;;;;7.43;59.44;98364.06;10334213;28;20505;-61
2022/03/31 06:56:51;;;;;;;17.90;14.75;;;;;;;7.47;58.76;98355.81;10338218;28;20049;-61
2022/03/31 07:01:53;;;;;;;19.15;15.23;;;;;;;7.62;58.52;98354.31;10336662;28;20057;-61
2022/03/31 07:06:54;;;;;;;18.15;14.57;;;;;;;7.70;58.68;98351.75;10344293;28;20057;-61
2022/03/31 07:11:56;;;;;;;17.10;14.88;;;;;;;7.82;58.11;98372.69;10339357;28;20194;-61
2022/03/31 07:16:57;;;;;;;23.15;16.80;;;;;;;7.91;58.13;98356.72;10338806;28;20077;-61
2022/03/31 07:21:59;;;;;;;19.48;16.45;;;;;;;7.96;57.85;98357.09;10340426;28;20175;-61
2022/03/31 07:27:01;;;;;;;22.45;17.27;;;;;;;8.02;57.68;98349.53;10342762;28;20104;-61
2022/03/31 07:32:04;;;;;;;26.00;20.13;;;;;;;8.04;57.78;98343.06;10340919;28;20629;-63
2022/03/31 07:37:05;;;;;;;26.05;19.77;;;;;;;8.08;58.16;98336.47;10341361;28;20060;-63
2022/03/31 07:42:07;;;;;;;19.13;15.23;;;;;;;8.10;57.29;98341.63;10332651;28;20081;-60
2022/03/31 07:47:09;;;;;;;17.60;15.05;;;;;;;8.14;57.86;98343.00;10338611;28;20179;-61
2022/03/31 07:52:11;;;;;;;16.58;14.52;;;;;;;8.09;57.82;98332.84;10336099;28;20068;-62
2022/03/31 07:57:33;;;;;;;18.73;15.43;;;;;;;8.10;57.40;98337.16;10337041;28;20064;-61
2022/03/31 08:02:34;;;;;;;20.02;15.88;;;;;;;8.18;57.40;98335.56;10339584;28;20046;-61
2022/03/31 08:07:36;;;;;;;17.50;14.90;;;;;;;8.00;57.16;98294.03;10340011;28;20161;-62
2022/03/31 08:12:40;;;;;;;19.50;15.77;;;;;;;8.26;57.75;98335.63;10336641;28;20424;-61
2022/03/31 08:17:43;;;;;;;14.90;11.80;;;;;;;8.24;57.64;98345.53;10339100;28;20331;-61
2022/03/31 08:22:45;;;;;;;20.67;15.32;;;;;;;8.28;57.57;98330.97;10344354;28;20060;-62
2022/03/31 08:27:47;;;;;;;17.48;14.75;;;;;;;8.22;57.81;98343.03;10341408;28;21190;-61
2022/03/31 08:32:52;;;;;;;17.95;15.48;;;;;;;8.23;57.16;98304.13;10337851;28;20199;-61
2022/03/31 08:37:54;;;;;;;28.50;17.00;;;;;;;8.55;57.18;98342.44;10342707;28;20274;-61
2022/03/31 08:42:56;;;;;;;19.60;16.17;;;;;;;8.53;57.07;98337.31;10341570;28;20050;-61
2022/03/31 08:47:58;;;;;;;20.23;15.35;;;;;;;8.66;57.16;98345.66;10344625;28;20132;-60
2022/03/31 08:52:59;;;;;;;25.23;17.33;;;;;;;8.74;56.83;98330.78;10341319;28;20054;-61
2022/03/31 08:58:02;;;;;;;20.13;16.50;;;;;;;8.81;56.93;98340.59;10344198;28;20045;-62
2022/03/31 09:03:07;;;;;;;20.50;16.20;;;;;;;9.08;56.64;98336.03;10343069;28;20551;-61
2022/03/31 09:08:16;;;;;;;18.77;16.58;;;;;;;9.28;55.68;98333.13;10343249;28;20061;-62
2022/03/31 09:13:24;;;;;;;19.02;15.50;;;;;;;9.28;55.94;98330.47;10341502;28;20177;-62
2022/03/31 09:18:27;;;;;;;19.85;17.40;;;;;;;9.32;55.77;98331.78;10342992;28;20053;-62
2022/03/31 09:23:32;;;;;;;19.52;16.30;;;;;;;9.43;55.85;98328.84;10343301;28;20412;-62
2022/03/31 09:28:39;;;;;;;20.13;16.48;;;;;;;9.53;55.63;98332.19;10340361;28;20520;-63
2022/03/31 09:33:48;;;;;;;18.88;16.20;;;;;;;9.45;55.23;98288.84;10344200;28;20052;-63
2022/03/31 09:39:07;;;;;;;20.13;17.77;;;;;;;9.81;54.79;98315.91;10348409;28;20038;-63
2022/03/31 09:44:22;;;;;;;18.30;16.27;;;;;;;9.73;55.09;98318.59;10339287;28;20677;-62
2022/03/31 09:49:27;;;;;;;18.90;14.75;;;;;;;9.72;55.62;98320.41;10338214;28;20468;-61
2022/03/31 09:54:29;;;;;;;;;;;;;;;9.90;55.22;98314.91;10339277;28;20061;-63
2022/03/31 09:59:41;;;;;;;18.05;16.05;;;;;;;9.98;54.97;98315.91;10339836;28;20024;-63
2022/03/31 10:04:44;;;;;;;18.50;16.58;;;;;;;9.99;54.92;98306.94;10343223;28;20394;-63
2022/03/31 10:09:46;;;;;;;21.38;17.95;;;;;;;10.10;54.76;98309.25;10352243;28;20691;-62
2022/03/31 10:14:59;;;;;;;19.45;16.95;;;;;;;10.04;54.40;98299.28;10357656;28;20049;-62
2022/03/31 10:20:13;;;;;;;19.80;17.70;;;;;;;10.04;54.31;98293.97;10350316;28;20052;-63
2022/03/31 10:25:17;;;;;;;19.35;17.15;;;;;;;10.02;54.84;98285.34;10346968;28;20714;-63
2022/03/31 10:30:25;;;;;;;20.15;17.48;;;;;;;10.11;54.53;98292.31;10348859;28;20271;-63
2022/03/31 10:35:27;;;;;;;18.80;16.80;;;;;;;10.13;54.47;98292.16;10353945;28;21142;-62
2022/03/31 10:40:38;;;;;;;19.45;17.45;;;;;;;10.13;54.64;98284.97;10347915;28;20169;-63
2022/03/31 10:45:43;;;;;;;22.02;18.40;;;;;;;10.11;54.78;98278.19;10349142;28;20054;-63
2022/03/31 10:50:46;;;;;;;20.38;17.65;;;;;;;10.11;54.83;98273.69;10358095;28;20057;-63
2022/03/31 10:55:50;;;;;;;18.38;16.48;;;;;;;10.31;54.27;98268.00;10346898;28;20049;-63
2022/03/31 11:01:05;;;;;;;18.83;16.80;;;;;;;10.55;53.99;98275.97;10349430;28;20500;-63
2022/03/31 11:06:13;;;;;;;19.23;17.02;;;;;;;10.56;53.49;98258.97;10354800;28;20072;-63
2022/03/31 11:11:37;;;;;;;19.92;16.70;;;;;;;10.44;53.94;98258.53;10365899;28;20060;-63
2022/03/31 11:16:39;;;;;;;17.50;15.63;;;;;;;10.32;54.10;98254.53;10363131;28;20072;-63
2022/03/31 11:21:45;;;;;;;19.23;17.15;;;;;;;10.04;54.51;98212.44;10370531;28;20142;-63
2022/03/31 11:26:47;;;;;;;17.65;15.73;;;;;;;10.33;54.76;98250.03;10361102;28;20092;-62
2022/03/31 11:31:51;;;;;;;20.83;18.05;;;;;;;10.12;54.39;98210.72;10362747;28;20058;-63
2022/03/31 11:36:57;;;;;;;16.95;15.15;;;;;;;10.41;54.84;98234.94;10359145;28;20125;-62
2022/03/31 11:42:00;;;;;;;17.92;15.43;;;;;;;10.61;53.85;98235.38;10356717;28;20096;-64
2022/03/31 11:47:02;;;;;;;18.13;15.35;;;;;;;10.65;53.75;98233.16;10358548;28;20074;-63
2022/03/31 11:52:05;;;;;;;16.90;15.10;;;;;;;10.65;53.53;98227.03;10373728;28;20092;-62
2022/03/31 11:57:12;;;;;;;19.33;17.17;;;;;;;10.78;53.18;98222.78;10370766;28;20478;-65
2022/03/31 12:02:15;;;;;;;17.67;15.82;;;;;;;10.88;52.71;98221.75;10383235;28;20046;-63
2022/03/31 12:07:19;;;;;;;17.15;15.35;;;;;;;11.05;52.21;98222.47;10360964;28;20545;-62
2022/03/31 12:12:21;;;;;;;17.27;15.57;;;;;;;11.02;52.57;98220.16;10356283;28;20140;-63
2022/03/31 12:17:23;;;;;;;17.42;15.63;;;;;;;11.06;52.30;98210.81;10361978;28;20056;-62
2022/03/31 12:22:32;;;;;;;16.77;15.18;;;;;;;11.16;52.31;98190.13;10359000;28;20437;-63
2022/03/31 12:27:44;;;;;;;16.35;14.65;;;;;;;11.92;52.10;98213.28;10370161;28;20061;-63
2022/03/31 12:32:47;;;;;;;17.33;15.27;;;;;;;12.27;51.58;98206.44;10368935;28;20042;-64
2022/03/31 12:37:51;;;;;;;18.00;16.13;;;;;;;12.03;51.60;98178.19;10364603;28;20054;-62
2022/03/31 12:42:55;;;;;;;16.88;14.63;;;;;;;11.82;52.66;98209.03;10356608;28;20716;-62
2022/03/31 12:47:57;;;;;;;16.63;14.73;;;;;;;11.63;53.04;98196.22;10356766;28;20140;-62
2022/03/31 12:53:02;;;;;;;14.93;13.07;;;;;;;11.66;53.42;98201.19;10357623;28;20061;-62
2022/03/31 12:58:06;;;;;;;16.90;15.07;;;;;;;11.80;52.25;98202.22;10356117;28;20072;-62
2022/03/31 13:03:09;;;;;;;15.68;14.07;;;;;;;11.87;53.13;98207.66;10356323;28;20420;-62
2022/03/31 13:08:11;;;;;;;15.93;14.23;;;;;;;11.63;52.58;98201.56;10354634;28;20053;-62
2022/03/31 13:13:13;;;;;;;15.68;13.85;;;;;;;11.46;53.13;98192.88;10358054;28;20060;-61
2022/03/31 13:18:35;;;;;;;16.05;14.35;;;;;;;11.31;53.96;98200.81;10354270;28;20052;-62
2022/03/31 13:23:37;;;;;;;15.80;14.10;;;;;;;11.22;53.71;98194.72;10355110;28;20057;-63
2022/03/31 13:28:40;;;;;;;15.30;13.65;;;;;;;11.10;53.86;98194.31;10357131;28;20603;-63
2022/03/31 13:33:42;;;;;;;15.48;13.88;;;;;;;10.88;53.32;98153.34;10351798;28;20064;-63
2022/03/31 13:38:43;;;;;;;14.18;12.70;;;;;;;10.79;53.95;98138.47;10355447;28;20524;-61
2022/03/31 13:43:45;;;;;;;13.48;11.75;;;;;;;10.96;53.98;98179.94;10353711;28;20113;-63
2022/03/31 13:48:47;;;;;;;13.68;12.30;;;;;;;10.83;54.05;98195.66;10354317;28;20057;-63
2022/03/31 13:53:53;;;;;;;14.15;12.65;;;;;;;10.79;53.93;98187.22;10354128;28;20115;-63
2022/03/31 14:04:15;;;;;;;16.38;12.55;;;;;;;10.86;53.69;98176.66;10354395;28;20052;-62
2022/03/31 14:09:19;;;;;;;13.52;12.13;;;;;;;10.71;54.90;98173.13;10344703;28;20961;-63
2022/03/31 14:14:23;;;;;;;13.45;12.05;;;;;;;10.69;54.80;98170.63;10351501;28;20669;-63
2022/03/31 14:19:33;;;;;;;14.02;12.27;;;;;;;10.68;54.89;98174.28;10352707;28;20700;-63
2022/03/31 14:24:35;;;;;;;14.27;12.85;;;;;;;10.73;54.81;98171.09;10347240;28;20054;-62
2022/03/31 14:29:40;;;;;;;13.65;12.25;;;;;;;10.78;54.81;98168.75;10349620;28;20050;-63
2022/03/31 14:34:42;;;;;;;12.40;11.13;;;;;;;10.66;54.72;98170.13;10350204;28;20092;-62
2022/03/31 14:39:44;;;;;;;14.15;12.35;;;;;;;10.36;55.29;98127.44;10350819;28;20152;-63
2022/03/31 14:44:45;;;;;;;12.75;11.45;;;;;;;10.60;55.62;98172.50;10352775;28;20049;-64
2022/03/31 14:49:48;;;;;;;13.82;12.32;;;;;;;10.56;55.51;98170.38;10352433;28;20133;-63
2022/03/31 14:54:50;;;;;;;12.27;11.07;;;;;;;10.20;56.80;98168.16;10353731;28;20183;-63
2022/03/31 14:59:52;;;;;;;13.57;11.65;;;;;;;10.23;57.15;98162.50;10352302;28;20179;-62
2022/03/31 15:04:54;;;;;;;12.23;10.98;;;;;;;10.22;58.35;98164.34;10352127;28;20052;-63
2022/03/31 15:15:15;;;;;;;15.07;13.13;;;;;;;10.26;59.81;98160.31;10360533;28;20076;-63
2022/03/31 15:20:17;;;;;;;15.63;12.95;;;;;;;10.06;60.20;98125.34;10358085;28;20065;-63
2022/03/31 15:25:18;;;;;;;16.75;14.98;;;;;;;10.09;61.26;98156.09;10365565;28;20049;-64
2022/03/31 15:30:21;;;;;;;16.73;14.90;;;;;;;9.91;61.44;98151.81;10367339;28;20152;-64
2022/03/31 15:35:23;;;;;;;18.60;16.40;;;;;;;9.67;62.76;98157.19;10364601;28;20057;-64
2022/03/31 15:40:26;;;;;;;19.25;16.75;;;;;;;9.51;63.47;98156.22;10363808;28;20054;-63
2022/03/31 15:45:27;;;;;;;19.55;17.38;;;;;;;9.61;63.35;98160.50;10366141;28;20436;-62
2022/03/31 15:50:29;;;;;;;21.38;18.15;;;;;;;9.50;63.56;98159.03;10359021;28;20042;-64
2022/03/31 15:55:31;;;;;;;20.30;18.15;;;;;;;9.55;63.63;98159.38;10357369;28;20104;-63
2022/03/31 16:00:33;;;;;;;21.23;19.02;;;;;;;9.65;63.45;98170.66;10357809;28;20108;-64
2022/03/31 16:05:35;;;;;;;19.27;17.27;;;;;;;9.44;62.44;98127.84;10353911;28;20090;-63
2022/03/31 16:10:41;;;;;;;21.40;17.13;;;;;;;9.54;62.34;98161.19;10362433;28;20413;-62
2022/03/31 16:15:43;;;;;;;18.90;16.90;;;;;;;9.43;62.02;98158.88;10365399;28;20080;-61
2022/03/31 16:20:44;;;;;;;21.25;19.05;;;;;;;9.00;62.88;98115.75;10371290;28;20034;-62
2022/03/31 16:25:47;;;;;;;20.45;18.38;;;;;;;9.31;64.01;98166.34;10362400;28;20049;-63
2022/03/31 16:30:50;;;;;;;21.33;18.40;;;;;;;9.20;63.75;98170.19;10360879;28;20050;-61
2022/03/31 16:35:51;;;;;;;21.42;18.67;;;;;;;9.07;63.95;98175.16;10369680;28;20133;-62
2022/03/31 16:40:53;;;;;;;21.08;18.88;;;;;;;9.07;63.70;98184.91;10377247;28;20076;-63
2022/03/31 16:45:54;;;;;;;20.35;18.35;;;;;;;9.12;63.23;98187.94;10371811;28;20073;-63
2022/03/31 16:50:56;;;;;;;19.48;16.88;;;;;;;9.17;62.87;98196.22;10365089;28;20044;-62
2022/03/31 16:55:57;;;;;;;18.75;16.92;;;;;;;9.12;62.26;98202.00;10364144;28;20109;-62
2022/03/31 17:00:59;;;;;;;18.42;16.52;;;;;;;9.13;61.76;98202.88;10379987;28;21106;-63
2022/03/31 17:06:01;;;;;;;18.10;16.25;;;;;;;9.10;61.89;98206.66;10372870;28;20061;-62
2022/03/31 17:11:02;;;;;;;17.70;15.90;;;;;;;8.79;61.86;98178.06;10365209;28;20049;-63
2022/03/31 17:16:04;;;;;;;17.50;15.80;;;;;;;8.77;62.24;98176.59;10373227;28;20546;-63
2022/03/31 17:21:07;;;;;;;17.80;16.02;;;;;;;8.76;62.25;98174.94;10393043;28;20041;-62
2022/03/31 17:26:09;;;;;;;17.33;15.52;;;;;;;8.88;62.31;98218.72;10370414;28;20077;-63
2022/03/31 17:31:11;;;;;;;16.60;14.90;;;;;;;8.90;62.30;98226.53;10366979;28;20065;-63
2022/03/31 17:36:12;;;;;;;16.77;15.02;;;;;;;8.94;62.38;98227.88;10368961;28;20108;-63
2022/03/31 17:41:15;;;;;;;15.73;14.13;;;;;;;8.78;62.63;98244.56;10373342;28;20161;-63
2022/03/31 17:46:18;;;;;;;16.33;14.35;;;;;;;8.78;63.03;98242.75;10357577;28;20140;-62
2022/03/31 17:51:19;;;;;;;16.48;14.77;;;;;;;8.69;63.76;98234.94;10350341;28;20053;-63
2022/03/31 17:56:21;;;;;;;18.25;15.27;;;;;;;8.47;62.67;98224.75;10349472;28;20135;-63
2022/03/31 18:01:22;;;;;;;17.73;15.77;;;;;;;8.55;63.80;98260.25;10351148;28;20140;-62
2022/03/31 18:06:24;;;;;;;16.45;14.85;;;;;;;8.29;63.78;98229.28;10354627;28;20037;-63
2022/03/31 18:11:26;;;;;;;16.30;14.60;;;;;;;8.14;63.96;98232.50;10343418;28;20059;-62
2022/03/31 18:16:28;;;;;;;13.82;12.43;;;;;;;8.08;63.96;98256.97;10349665;28;20045;-64
2022/03/31 18:21:31;;;;;;;13.13;11.88;;;;;;;8.20;64.21;98285.88;10349614;28;20057;-63
2022/03/31 18:26:33;;;;;;;12.65;11.48;;;;;;;7.85;64.73;98240.78;10349683;28;20050;-64
2022/03/31 18:36:55;;;;;;;11.57;10.40;;;;;;;7.97;65.54;98294.31;10351223;28;20536;-63
2022/03/31 18:41:56;;;;;;;11.52;10.43;;;;;;;7.85;66.44;98274.38;10350969;28;20080;-63
2022/03/31 18:46:58;;;;;;;12.77;11.48;;;;;;;7.95;66.33;98307.72;10350542;28;20713;-63
2022/03/31 18:52:01;;;;;;;13.27;11.88;;;;;;;7.96;66.49;98313.88;10352776;28;20416;-63
2022/03/31 18:57:03;;;;;;;12.02;10.82;;;;;;;7.93;66.02;98311.53;10352804;28;20046;-63
2022/03/31 19:02:05;;;;;;;11.93;10.82;;;;;;;7.92;65.82;98325.75;10349355;28;20469;-63
2022/03/31 19:07:07;;;;;;;11.80;10.60;;;;;;;7.87;65.79;98330.69;10352878;28;20072;-64
2022/03/31 19:12:10;;;;;;;12.60;11.40;;;;;;;7.78;65.70;98332.44;10346396;28;20838;-63
2022/03/31 19:17:13;;;;;;;11.48;10.27;;;;;;;7.60;65.99;98327.16;10356682;28;20070;-65
2022/03/31 19:22:14;;;;;;;12.45;11.32;;;;;;;7.56;67.35;98345.16;10353014;28;20140;-62
2022/03/31 19:27:16;;;;;;;12.30;11.10;;;;;;;7.53;66.85;98341.97;10350240;28;20594;-63
2022/03/31 19:32:18;;;;;;;11.88;10.63;;;;;;;7.30;67.26;98302.72;10351088;28;20128;-63
2022/03/31 19:37:20;;;;;;;12.65;11.45;;;;;;;7.51;67.51;98341.31;10348021;28;20619;-63
2022/03/31 19:42:27;;;;;;;13.55;12.18;;;;;;;7.51;67.82;98363.31;10343869;28;20049;-64
2022/03/31 19:47:32;;;;;;;12.82;11.65;;;;;;;7.53;68.19;98350.75;10337266;28;20179;-63
2022/03/31 19:52:34;;;;;;;14.07;12.65;;;;;;;7.48;68.41;98360.97;10345596;28;20515;-63
2022/03/31 19:57:36;;;;;;;14.25;12.95;;;;;;;7.17;68.89;98363.09;10350908;28;20060;-64
2022/03/31 20:02:38;;;;;;;15.55;14.13;;;;;;;6.80;70.12;98321.66;10349417;28;20049;-64
2022/03/31 20:07:39;;;;;;;16.55;15.05;;;;;;;6.90;69.76;98322.44;10339700;28;20132;-64
2022/03/31 20:12:40;;;;;;;17.50;15.85;;;;;;;7.15;69.30;98365.09;10347565;28;20556;-64
2022/03/31 20:17:42;;;;;;;17.17;15.48;;;;;;;7.18;69.34;98364.78;10351232;28;20044;-64
2022/03/31 20:22:44;;;;;;;18.35;16.65;;;;;;;6.90;69.76;98322.44;10353376;28;20060;-63
2022/03/31 20:27:45;;;;;;;19.83;17.92;;;;;;;6.84;69.98;98328.34;10349014;28;20140;-62
2022/03/31 20:32:48;;;;;;;19.48;17.55;;;;;;;6.95;70.02;98373.13;10355245;28;20061;-64
2022/03/31 20:37:49;;;;;;;19.42;17.60;;;;;;;6.95;70.04;98362.53;10354439;28;20588;-63
2022/03/31 20:42:51;;;;;;;21.08;19.08;;;;;;;6.90;70.11;98365.63;10352705;28;20140;-62
2022/03/31 20:47:53;;;;;;;19.98;18.13;;;;;;;6.74;70.27;98362.78;10360928;28;20072;-63
2022/03/31 20:52:55;;;;;;;19.42;17.63;;;;;;;6.47;71.36;98323.88;10358364;28;20073;-63
2022/03/31 20:57:56;;;;;;;20.83;19.00;;;;;;;6.73;70.60;98361.09;10354431;28;20049;-63
2022/03/31 21:03:00;;;;;;;18.20;16.55;;;;;;;6.41;70.78;98313.91;10354455;28;20058;-63
2022/03/31 21:08:02;;;;;;;19.33;17.63;;;;;;;6.33;71.56;98357.72;10355580;28;20120;-64
2022/03/31 21:13:05;;;;;;;19.30;17.50;;;;;;;6.18;72.73;98359.16;10356403;28;20548;-63
2022/03/31 21:18:07;;;;;;;18.30;16.60;;;;;;;6.21;72.29;98348.31;10354294;28;20046;-70
2022/03/31 21:23:09;;;;;;;18.00;16.40;;;;;;;6.30;71.53;98326.31;10352608;28;20129;-63
2022/03/31 21:28:11;;;;;;;19.63;17.83;;;;;;;6.52;71.68;98361.31;10352863;28;20057;-62
2022/03/31 21:33:13;;;;;;;17.88;16.35;;;;;;;6.27;72.10;98355.66;10357196;28;20042;-63
2022/03/31 21:38:15;;;;;;;17.92;16.23;;;;;;;6.07;73.24;98359.34;10349915;28;20075;-63
2022/03/31 21:43:19;;;;;;;19.30;17.52;;;;;;;6.23;72.81;98362.22;10353288;28;20157;-63
2022/03/31 21:48:21;;;;;;;17.63;15.93;;;;;;;6.34;72.19;98369.97;10353589;28;20049;-63
2022/03/31 21:53:23;;;;;;;16.50;15.10;;;;;;;6.33;71.89;98368.28;10353765;28;20081;-63
2022/03/31 21:58:24;;;;;;;17.73;16.13;;;;;;;6.32;72.43;98376.38;10350334;28;20275;-65
2022/03/31 22:03:26;;;;;;;17.90;16.30;;;;;;;6.23;72.64;98375.44;10351488;28;20509;-62
2022/03/31 22:13:50;;;;;;;16.15;14.75;;;;;;;6.19;71.89;98374.03;10355251;28;20065;-62
2022/03/31 22:18:52;;;;;;;16.98;15.45;;;;;;;6.26;70.74;98380.44;10354287;28;20042;-63
2022/03/31 22:23:53;;;;;;;16.83;15.38;;;;;;;6.25;71.00;98375.28;10351032;28;20050;-62
2022/03/31 22:28:56;;;;;;;17.83;16.20;;;;;;;6.21;70.72;98369.44;10356292;28;20129;-63
2022/03/31 22:33:57;;;;;;;16.05;14.75;;;;;;;6.27;70.92;98378.63;10355842;28;20477;-63
2022/03/31 22:38:59;;;;;;;16.70;15.30;;;;;;;6.24;71.30;98378.91;10354266;28;20061;-63
2022/03/31 22:44:01;;;;;;;16.67;15.18;;;;;;;5.98;70.34;98334.59;10354761;28;20468;-63
2022/03/31 22:49:05;;;;;;;15.60;14.30;;;;;;;6.32;70.07;98386.94;10354753;28;20045;-62
2022/03/31 22:54:07;;;;;;;16.60;15.10;;;;;;;5.83;70.45;98364.03;10350580;28;20142;-62
2022/03/31 22:59:09;;;;;;;16.13;14.77;;;;;;;6.01;70.68;98373.94;10350888;28;20169;-63
2022/03/31 23:04:11;;;;;;;17.27;15.80;;;;;;;5.99;70.02;98366.16;10353164;28;20424;-63
2022/03/31 23:09:12;;;;;;;17.48;15.90;;;;;;;5.83;70.30;98352.63;10354770;28;20049;-62
2022/03/31 23:14:14;;;;;;;17.33;15.73;;;;;;;5.90;70.35;98388.09;10355424;28;20375;-63
2022/03/31 23:19:16;;;;;;;17.48;15.93;;;;;;;5.54;72.74;98398.34;10348585;28;20054;-62
2022/03/31 23:24:17;;;;;;;17.50;15.93;;;;;;;5.69;71.69;98375.03;10352825;28;20144;-62
2022/03/31 23:29:19;;;;;;;18.20;16.60;;;;;;;5.74;71.22;98387.81;10355678;28;20049;-65
2022/03/31 23:34:20;;;;;;;17.10;15.70;;;;;;;5.63;71.85;98392.25;10354575;28;20488;-63
2022/03/31 23:39:22;;;;;;;16.33;14.82;;;;;;;5.52;71.70;98400.28;10350482;28;20231;-62